sensor_id;sensor_type;location;lat;lon;timestamp;temperature;humidity
29577;DHT22;16509;53.862;10.672;2024-01-06T00:00:34;-0.70;99.90
29577;DHT22;16509;53.862;10.672;2024-01-06T00:03:00;-0.80;99.90
29577;DHT22;16509;53.862;10.672;2024-01-06T00:05:25;-0.80;99.90
29577;DHT22;16509;53.862;10.672;2024-01-06T00:07:51;-0.80;99.90
29577;DHT22;16509;53.862;10.672;2024-01-06T00:10:17;-0.70;99.90
29577;DHT22;16509;53.862;10.672;2024-01-06T00:12:42;-0.80;99.90
29577;DHT22;16509;53.862;10.672;2024-01-06T00:15:08;-0.70;99.90
29577;DHT22;16509;53.862;10.672;2024-01-06T00:17:34;-0.70;99.90
29577;DHT22;16509;53.862;10.672;2024-01-06T00:19:59;-0.70;99.90
29577;DHT22;16509;53.862;10.672;2024-01-06T00:22:27;-0.70;99.90
29577;DHT22;16509;53.862;10.672;2024-01-06T00:24:52;-0.70;99.90
29577;DHT22;16509;53.862;10.672;2024-01-06T00:27:18;-0.70;99.90
29577;DHT22;16509;53.862;10.672;2024-01-06T00:29:43;-0.70;99.90
29577;DHT22;16509;53.862;10.672;2024-01-06T00:32:09;-0.70;99.90
29577;DHT22;16509;53.862;10.672;2024-01-06T00:34:34;-0.70;99.90
29577;DHT22;16509;53.862;10.672;2024-01-06T00:37:00;-0.70;99.90
29577;DHT22;16509;53.862;10.672;2024-01-06T00:39:26;-0.70;99.90
29577;DHT22;16509;53.862;10.672;2024-01-06T00:41:52;-0.70;99.90
29577;DHT22;16509;53.862;10.672;2024-01-06T00:44:17;-0.60;99.90
29577;DHT22;16509;53.862;10.672;2024-01-06T00:46:43;-0.60;99.90
29577;DHT22;16509;53.862;10.672;2024-01-06T00:49:08;-0.70;99.90
29577;DHT22;16509;53.862;10.672;2024-01-06T00:51:34;-0.70;99.90
29577;DHT22;16509;53.862;10.672;2024-01-06T00:53:59;-0.70;99.90
29577;DHT22;16509;53.862;10.672;2024-01-06T00:56:25;-0.60;99.90
29577;DHT22;16509;53.862;10.672;2024-01-06T00:58:52;-0.60;99.90
29577;DHT22;16509;53.862;10.672;2024-01-06T01:01:18;-0.70;99.90
29577;DHT22;16509;53.862;10.672;2024-01-06T01:03:43;-0.70;99.90
29577;DHT22;16509;53.862;10.672;2024-01-06T01:06:09;-0.60;99.90
29577;DHT22;16509;53.862;10.672;2024-01-06T01:08:34;-0.60;99.90
29577;DHT22;16509;53.862;10.672;2024-01-06T01:11:00;-0.60;99.90
29577;DHT22;16509;53.862;10.672;2024-01-06T01:13:25;-0.60;99.90
29577;DHT22;16509;53.862;10.672;2024-01-06T01:15:51;-0.60;99.90
29577;DHT22;16509;53.862;10.672;2024-01-06T01:18:17;-0.60;99.90
29577;DHT22;16509;53.862;10.672;2024-01-06T01:20:42;-0.60;99.90
29577;DHT22;16509;53.862;10.672;2024-01-06T01:23:08;-0.60;99.90
29577;DHT22;16509;53.862;10.672;2024-01-06T01:25:33;-0.60;99.90
29577;DHT22;16509;53.862;10.672;2024-01-06T01:27:59;-0.60;99.90
29577;DHT22;16509;53.862;10.672;2024-01-06T01:30:25;-0.60;99.90
29577;DHT22;16509;53.862;10.672;2024-01-06T01:32:50;-0.60;99.90
29577;DHT22;16509;53.862;10.672;2024-01-06T01:35:16;-0.60;99.90
29577;DHT22;16509;53.862;10.672;2024-01-06T01:37:41;-0.60;99.90
29577;DHT22;16509;53.862;10.672;2024-01-06T01:40:07;-0.70;99.90
29577;DHT22;16509;53.862;10.672;2024-01-06T01:42:33;-0.60;99.90
29577;DHT22;16509;53.862;10.672;2024-01-06T01:44:59;-0.60;99.90
29577;DHT22;16509;53.862;10.672;2024-01-06T01:47:25;-0.60;99.90
29577;DHT22;16509;53.862;10.672;2024-01-06T01:49:51;-0.60;99.90
29577;DHT22;16509;53.862;10.672;2024-01-06T01:52:17;-0.60;99.90
29577;DHT22;16509;53.862;10.672;2024-01-06T01:54:45;-0.60;99.90
29577;DHT22;16509;53.862;10.672;2024-01-06T01:57:11;-0.60;99.90
29577;DHT22;16509;53.862;10.672;2024-01-06T01:59:38;-0.50;99.90
29577;DHT22;16509;53.862;10.672;2024-01-06T02:02:04;-0.60;99.90
29577;DHT22;16509;53.862;10.672;2024-01-06T02:04:30;-0.60;99.90
29577;DHT22;16509;53.862;10.672;2024-01-06T02:06:55;-0.60;99.90
29577;DHT22;16509;53.862;10.672;2024-01-06T02:09:21;-0.50;99.90
29577;DHT22;16509;53.862;10.672;2024-01-06T02:11:48;-0.50;99.90
29577;DHT22;16509;53.862;10.672;2024-01-06T02:14:14;-0.60;99.90
29577;DHT22;16509;53.862;10.672;2024-01-06T02:16:39;-0.50;99.90
29577;DHT22;16509;53.862;10.672;2024-01-06T02:19:06;-0.50;99.90
29577;DHT22;16509;53.862;10.672;2024-01-06T02:21:35;-0.50;99.90
29577;DHT22;16509;53.862;10.672;2024-01-06T02:24:06;-0.50;99.90
29577;DHT22;16509;53.862;10.672;2024-01-06T02:26:32;-0.50;99.90
29577;DHT22;16509;53.862;10.672;2024-01-06T02:28:57;-0.50;99.90
29577;DHT22;16509;53.862;10.672;2024-01-06T02:31:23;-0.50;99.90
29577;DHT22;16509;53.862;10.672;2024-01-06T02:33:48;-0.50;99.90
29577;DHT22;16509;53.862;10.672;2024-01-06T02:36:14;-0.50;99.90
29577;DHT22;16509;53.862;10.672;2024-01-06T02:38:39;-0.50;99.90
29577;DHT22;16509;53.862;10.672;2024-01-06T02:41:05;-0.50;99.90
29577;DHT22;16509;53.862;10.672;2024-01-06T02:43:30;-0.50;99.90
29577;DHT22;16509;53.862;10.672;2024-01-06T02:45:56;-0.50;99.90
29577;DHT22;16509;53.862;10.672;2024-01-06T02:48:21;-0.50;99.90
29577;DHT22;16509;53.862;10.672;2024-01-06T02:50:47;-0.50;99.90
29577;DHT22;16509;53.862;10.672;2024-01-06T02:53:12;-0.50;99.90
29577;DHT22;16509;53.862;10.672;2024-01-06T02:55:38;-0.50;99.90
29577;DHT22;16509;53.862;10.672;2024-01-06T02:58:04;-0.50;99.90
29577;DHT22;16509;53.862;10.672;2024-01-06T03:00:29;-0.50;99.90
29577;DHT22;16509;53.862;10.672;2024-01-06T03:02:55;-0.50;99.90
29577;DHT22;16509;53.862;10.672;2024-01-06T03:05:20;-0.50;99.90
29577;DHT22;16509;53.862;10.672;2024-01-06T03:07:46;-0.50;99.90
29577;DHT22;16509;53.862;10.672;2024-01-06T03:10:12;-0.40;99.90
29577;DHT22;16509;53.862;10.672;2024-01-06T03:12:37;-0.50;99.90
29577;DHT22;16509;53.862;10.672;2024-01-06T03:15:03;-0.50;99.90
29577;DHT22;16509;53.862;10.672;2024-01-06T03:17:28;-0.50;99.90
29577;DHT22;16509;53.862;10.672;2024-01-06T03:19:54;-0.50;99.90
29577;DHT22;16509;53.862;10.672;2024-01-06T03:22:20;-0.50;99.90
29577;DHT22;16509;53.862;10.672;2024-01-06T03:24:45;-0.50;99.90
29577;DHT22;16509;53.862;10.672;2024-01-06T03:27:11;-0.50;99.90
29577;DHT22;16509;53.862;10.672;2024-01-06T03:29:38;-0.50;99.90
29577;DHT22;16509;53.862;10.672;2024-01-06T03:32:03;-0.50;99.90
29577;DHT22;16509;53.862;10.672;2024-01-06T03:34:29;-0.50;99.90
29577;DHT22;16509;53.862;10.672;2024-01-06T03:36:54;-0.50;99.90
29577;DHT22;16509;53.862;10.672;2024-01-06T03:39:20;-0.50;99.90
29577;DHT22;16509;53.862;10.672;2024-01-06T03:41:45;-0.50;99.90
29577;DHT22;16509;53.862;10.672;2024-01-06T03:44:11;-0.50;99.90
29577;DHT22;16509;53.862;10.672;2024-01-06T03:46:37;-0.50;99.90
29577;DHT22;16509;53.862;10.672;2024-01-06T03:49:03;-0.50;99.90
29577;DHT22;16509;53.862;10.672;2024-01-06T03:51:29;-0.50;99.90
29577;DHT22;16509;53.862;10.672;2024-01-06T03:53:54;-0.50;99.90
29577;DHT22;16509;53.862;10.672;2024-01-06T03:56:20;-0.50;99.90
29577;DHT22;16509;53.862;10.672;2024-01-06T03:58:46;-0.50;99.90
29577;DHT22;16509;53.862;10.672;2024-01-06T04:01:11;-0.50;99.90
29577;DHT22;16509;53.862;10.672;2024-01-06T04:03:38;-0.50;99.90
29577;DHT22;16509;53.862;10.672;2024-01-06T04:06:06;-0.40;99.90
29577;DHT22;16509;53.862;10.672;2024-01-06T04:08:31;-0.50;99.90
29577;DHT22;16509;53.862;10.672;2024-01-06T04:10:57;-0.50;99.90
29577;DHT22;16509;53.862;10.672;2024-01-06T04:13:22;-0.40;99.90
29577;DHT22;16509;53.862;10.672;2024-01-06T04:15:52;-0.40;99.90
29577;DHT22;16509;53.862;10.672;2024-01-06T04:18:18;-0.50;99.90
29577;DHT22;16509;53.862;10.672;2024-01-06T04:20:44;-0.50;99.90
29577;DHT22;16509;53.862;10.672;2024-01-06T04:23:09;-0.50;99.90
29577;DHT22;16509;53.862;10.672;2024-01-06T04:25:35;-0.50;99.90
29577;DHT22;16509;53.862;10.672;2024-01-06T04:28:00;-0.50;99.90
29577;DHT22;16509;53.862;10.672;2024-01-06T04:30:26;-0.50;99.90
29577;DHT22;16509;53.862;10.672;2024-01-06T04:32:51;-0.50;99.90
29577;DHT22;16509;53.862;10.672;2024-01-06T04:35:17;-0.50;99.90
29577;DHT22;16509;53.862;10.672;2024-01-06T04:37:43;-0.50;99.90
29577;DHT22;16509;53.862;10.672;2024-01-06T04:40:10;-0.50;99.90
29577;DHT22;16509;53.862;10.672;2024-01-06T04:42:35;-0.50;99.90
29577;DHT22;16509;53.862;10.672;2024-01-06T04:45:01;-0.50;99.90
29577;DHT22;16509;53.862;10.672;2024-01-06T04:47:28;-0.50;99.90
29577;DHT22;16509;53.862;10.672;2024-01-06T04:49:55;-0.50;99.90
29577;DHT22;16509;53.862;10.672;2024-01-06T04:52:21;-0.50;99.90
29577;DHT22;16509;53.862;10.672;2024-01-06T04:54:47;-0.50;99.90
29577;DHT22;16509;53.862;10.672;2024-01-06T04:57:12;-0.50;99.90
29577;DHT22;16509;53.862;10.672;2024-01-06T04:59:38;-0.50;99.90
29577;DHT22;16509;53.862;10.672;2024-01-06T05:02:04;-0.60;99.90
29577;DHT22;16509;53.862;10.672;2024-01-06T05:04:30;-0.50;99.90
29577;DHT22;16509;53.862;10.672;2024-01-06T05:06:57;-0.60;99.90
29577;DHT22;16509;53.862;10.672;2024-01-06T05:09:23;-0.60;99.90
29577;DHT22;16509;53.862;10.672;2024-01-06T05:11:48;-0.60;99.90
29577;DHT22;16509;53.862;10.672;2024-01-06T05:14:14;-0.60;99.90
29577;DHT22;16509;53.862;10.672;2024-01-06T05:16:39;-0.60;99.90
29577;DHT22;16509;53.862;10.672;2024-01-06T05:19:05;-0.70;99.90
29577;DHT22;16509;53.862;10.672;2024-01-06T05:21:30;-0.60;99.90
29577;DHT22;16509;53.862;10.672;2024-01-06T05:23:56;-0.60;99.90
29577;DHT22;16509;53.862;10.672;2024-01-06T05:26:22;-0.60;99.90
29577;DHT22;16509;53.862;10.672;2024-01-06T05:28:48;-0.60;99.90
29577;DHT22;16509;53.862;10.672;2024-01-06T05:31:13;-0.60;99.90
29577;DHT22;16509;53.862;10.672;2024-01-06T05:33:39;-0.60;99.90
29577;DHT22;16509;53.862;10.672;2024-01-06T05:36:04;-0.60;99.90
29577;DHT22;16509;53.862;10.672;2024-01-06T05:38:30;-0.70;99.90
29577;DHT22;16509;53.862;10.672;2024-01-06T05:40:56;-0.70;99.90
29577;DHT22;16509;53.862;10.672;2024-01-06T05:43:21;-0.70;99.90
29577;DHT22;16509;53.862;10.672;2024-01-06T05:45:47;-0.70;99.90
29577;DHT22;16509;53.862;10.672;2024-01-06T05:48:12;-0.60;99.90
29577;DHT22;16509;53.862;10.672;2024-01-06T05:50:38;-0.60;99.90
29577;DHT22;16509;53.862;10.672;2024-01-06T05:53:07;-0.60;99.90
29577;DHT22;16509;53.862;10.672;2024-01-06T05:55:33;-0.60;99.90
29577;DHT22;16509;53.862;10.672;2024-01-06T05:57:58;-0.60;99.90
29577;DHT22;16509;53.862;10.672;2024-01-06T06:00:24;-0.60;99.90
29577;DHT22;16509;53.862;10.672;2024-01-06T06:02:49;-0.60;99.90
29577;DHT22;16509;53.862;10.672;2024-01-06T06:05:15;-0.60;99.90
29577;DHT22;16509;53.862;10.672;2024-01-06T06:07:41;-0.60;99.90
29577;DHT22;16509;53.862;10.672;2024-01-06T06:10:09;-0.60;99.90
29577;DHT22;16509;53.862;10.672;2024-01-06T06:12:35;-0.70;99.90
29577;DHT22;16509;53.862;10.672;2024-01-06T06:15:01;-0.70;99.90
29577;DHT22;16509;53.862;10.672;2024-01-06T06:17:27;-0.70;99.90
29577;DHT22;16509;53.862;10.672;2024-01-06T06:19:53;-0.60;99.90
29577;DHT22;16509;53.862;10.672;2024-01-06T06:22:18;-0.70;99.90
29577;DHT22;16509;53.862;10.672;2024-01-06T06:24:44;-0.60;99.90
29577;DHT22;16509;53.862;10.672;2024-01-06T06:27:10;-0.60;99.90
29577;DHT22;16509;53.862;10.672;2024-01-06T06:29:35;-0.60;99.90
29577;DHT22;16509;53.862;10.672;2024-01-06T06:32:01;-0.60;99.90
29577;DHT22;16509;53.862;10.672;2024-01-06T06:34:26;-0.70;99.90
29577;DHT22;16509;53.862;10.672;2024-01-06T06:36:51;-0.70;99.90
29577;DHT22;16509;53.862;10.672;2024-01-06T06:39:17;-0.70;99.90
29577;DHT22;16509;53.862;10.672;2024-01-06T06:41:44;-0.70;99.90
29577;DHT22;16509;53.862;10.672;2024-01-06T06:44:09;-0.70;99.90
29577;DHT22;16509;53.862;10.672;2024-01-06T06:46:36;-0.70;99.90
29577;DHT22;16509;53.862;10.672;2024-01-06T06:49:01;-0.60;99.90
29577;DHT22;16509;53.862;10.672;2024-01-06T06:51:27;-0.70;99.90
29577;DHT22;16509;53.862;10.672;2024-01-06T06:53:54;-0.70;99.90
29577;DHT22;16509;53.862;10.672;2024-01-06T06:56:19;-0.70;99.90
29577;DHT22;16509;53.862;10.672;2024-01-06T06:58:45;-0.70;99.90
29577;DHT22;16509;53.862;10.672;2024-01-06T07:01:10;-0.70;99.90
29577;DHT22;16509;53.862;10.672;2024-01-06T07:03:36;-0.70;99.90
29577;DHT22;16509;53.862;10.672;2024-01-06T07:06:01;-0.70;99.90
29577;DHT22;16509;53.862;10.672;2024-01-06T07:08:27;-0.70;99.90
29577;DHT22;16509;53.862;10.672;2024-01-06T07:10:53;-0.70;99.90
29577;DHT22;16509;53.862;10.672;2024-01-06T07:13:18;-0.80;99.90
29577;DHT22;16509;53.862;10.672;2024-01-06T07:15:44;-0.70;99.90
29577;DHT22;16509;53.862;10.672;2024-01-06T07:18:10;-0.70;99.90
29577;DHT22;16509;53.862;10.672;2024-01-06T07:20:36;-0.70;99.90
29577;DHT22;16509;53.862;10.672;2024-01-06T07:23:02;-0.70;99.90
29577;DHT22;16509;53.862;10.672;2024-01-06T07:25:28;-0.70;99.90
29577;DHT22;16509;53.862;10.672;2024-01-06T07:27:55;-0.70;99.90
29577;DHT22;16509;53.862;10.672;2024-01-06T07:30:21;-0.70;99.90
29577;DHT22;16509;53.862;10.672;2024-01-06T07:32:46;-0.70;99.90
29577;DHT22;16509;53.862;10.672;2024-01-06T07:35:12;-0.70;99.90
29577;DHT22;16509;53.862;10.672;2024-01-06T07:37:39;-0.80;99.90
29577;DHT22;16509;53.862;10.672;2024-01-06T07:40:05;-0.70;99.90
29577;DHT22;16509;53.862;10.672;2024-01-06T07:42:30;-0.70;99.90
29577;DHT22;16509;53.862;10.672;2024-01-06T07:44:57;-0.70;99.90
29577;DHT22;16509;53.862;10.672;2024-01-06T07:47:22;-0.70;99.90
29577;DHT22;16509;53.862;10.672;2024-01-06T07:49:48;-0.70;99.90
29577;DHT22;16509;53.862;10.672;2024-01-06T07:52:13;-0.70;99.90
29577;DHT22;16509;53.862;10.672;2024-01-06T07:54:39;-0.60;99.90
29577;DHT22;16509;53.862;10.672;2024-01-06T07:57:04;-0.60;99.90
29577;DHT22;16509;53.862;10.672;2024-01-06T07:59:30;-0.60;99.90
29577;DHT22;16509;53.862;10.672;2024-01-06T08:01:56;-0.60;99.90
29577;DHT22;16509;53.862;10.672;2024-01-06T08:04:21;-0.60;99.90
29577;DHT22;16509;53.862;10.672;2024-01-06T08:06:47;-0.60;99.90
29577;DHT22;16509;53.862;10.672;2024-01-06T08:09:12;-0.60;99.90
29577;DHT22;16509;53.862;10.672;2024-01-06T08:11:38;-0.50;99.90
29577;DHT22;16509;53.862;10.672;2024-01-06T08:14:04;-0.50;99.90
29577;DHT22;16509;53.862;10.672;2024-01-06T08:16:29;-0.50;99.90
29577;DHT22;16509;53.862;10.672;2024-01-06T08:18:55;-0.50;99.90
29577;DHT22;16509;53.862;10.672;2024-01-06T08:21:20;-0.50;99.90
29577;DHT22;16509;53.862;10.672;2024-01-06T08:23:46;-0.50;99.90
29577;DHT22;16509;53.862;10.672;2024-01-06T08:26:12;-0.50;99.90
29577;DHT22;16509;53.862;10.672;2024-01-06T08:28:37;-0.40;99.90
29577;DHT22;16509;53.862;10.672;2024-01-06T08:31:03;-0.40;99.90
29577;DHT22;16509;53.862;10.672;2024-01-06T08:33:28;-0.40;99.90
29577;DHT22;16509;53.862;10.672;2024-01-06T08:35:54;-0.40;99.90
29577;DHT22;16509;53.862;10.672;2024-01-06T08:38:20;-0.40;99.90
29577;DHT22;16509;53.862;10.672;2024-01-06T08:40:47;-0.40;99.90
29577;DHT22;16509;53.862;10.672;2024-01-06T08:43:15;-0.40;99.90
29577;DHT22;16509;53.862;10.672;2024-01-06T08:45:41;-0.40;99.90
29577;DHT22;16509;53.862;10.672;2024-01-06T08:48:07;-0.40;99.90
29577;DHT22;16509;53.862;10.672;2024-01-06T08:50:32;-0.40;99.90
29577;DHT22;16509;53.862;10.672;2024-01-06T08:52:58;-0.40;99.90
29577;DHT22;16509;53.862;10.672;2024-01-06T08:55:24;-0.40;99.90
29577;DHT22;16509;53.862;10.672;2024-01-06T08:57:50;-0.40;99.90
29577;DHT22;16509;53.862;10.672;2024-01-06T09:00:16;-0.40;99.90
29577;DHT22;16509;53.862;10.672;2024-01-06T09:02:42;-0.40;99.90
29577;DHT22;16509;53.862;10.672;2024-01-06T09:05:08;-0.40;99.90
29577;DHT22;16509;53.862;10.672;2024-01-06T09:07:33;-0.40;99.90
29577;DHT22;16509;53.862;10.672;2024-01-06T09:09:59;-0.30;99.90
29577;DHT22;16509;53.862;10.672;2024-01-06T09:12:24;-0.40;99.90
29577;DHT22;16509;53.862;10.672;2024-01-06T09:14:50;-0.30;99.90
29577;DHT22;16509;53.862;10.672;2024-01-06T09:17:16;-0.30;99.90
29577;DHT22;16509;53.862;10.672;2024-01-06T09:19:41;-0.30;99.90
29577;DHT22;16509;53.862;10.672;2024-01-06T09:22:07;-0.40;99.90
29577;DHT22;16509;53.862;10.672;2024-01-06T09:24:32;-0.30;99.90
29577;DHT22;16509;53.862;10.672;2024-01-06T09:26:59;-0.30;99.90
29577;DHT22;16509;53.862;10.672;2024-01-06T09:29:24;-0.30;99.90
29577;DHT22;16509;53.862;10.672;2024-01-06T09:31:50;-0.30;99.90
29577;DHT22;16509;53.862;10.672;2024-01-06T09:34:16;-0.30;99.90
29577;DHT22;16509;53.862;10.672;2024-01-06T09:36:41;-0.30;99.90
29577;DHT22;16509;53.862;10.672;2024-01-06T09:39:07;-0.30;99.90
29577;DHT22;16509;53.862;10.672;2024-01-06T09:41:33;-0.30;99.90
29577;DHT22;16509;53.862;10.672;2024-01-06T09:43:59;-0.30;99.90
29577;DHT22;16509;53.862;10.672;2024-01-06T09:46:26;-0.30;99.90
29577;DHT22;16509;53.862;10.672;2024-01-06T09:48:52;-0.30;99.90
29577;DHT22;16509;53.862;10.672;2024-01-06T09:51:19;-0.30;99.90
29577;DHT22;16509;53.862;10.672;2024-01-06T09:56:17;-0.30;99.90
29577;DHT22;16509;53.862;10.672;2024-01-06T09:58:44;-0.30;99.90
29577;DHT22;16509;53.862;10.672;2024-01-06T10:01:11;-0.30;99.90
29577;DHT22;16509;53.862;10.672;2024-01-06T10:03:37;-0.30;99.90
29577;DHT22;16509;53.862;10.672;2024-01-06T10:06:03;-0.30;99.90
29577;DHT22;16509;53.862;10.672;2024-01-06T10:08:30;-0.30;99.90
29577;DHT22;16509;53.862;10.672;2024-01-06T10:10:55;-0.20;99.90
29577;DHT22;16509;53.862;10.672;2024-01-06T10:13:21;-0.20;99.90
29577;DHT22;16509;53.862;10.672;2024-01-06T10:15:46;-0.30;99.90
29577;DHT22;16509;53.862;10.672;2024-01-06T10:18:13;-0.30;99.90
29577;DHT22;16509;53.862;10.672;2024-01-06T10:20:38;-0.30;99.90
29577;DHT22;16509;53.862;10.672;2024-01-06T10:23:05;-0.30;99.90
29577;DHT22;16509;53.862;10.672;2024-01-06T10:25:31;-0.20;99.90
29577;DHT22;16509;53.862;10.672;2024-01-06T10:27:57;-0.30;99.90
29577;DHT22;16509;53.862;10.672;2024-01-06T10:30:25;-0.30;99.90
29577;DHT22;16509;53.862;10.672;2024-01-06T10:32:51;-0.20;99.90
29577;DHT22;16509;53.862;10.672;2024-01-06T10:35:18;-0.20;99.90
29577;DHT22;16509;53.862;10.672;2024-01-06T10:37:44;-0.20;99.90
29577;DHT22;16509;53.862;10.672;2024-01-06T10:40:15;-0.20;99.90
29577;DHT22;16509;53.862;10.672;2024-01-06T10:42:41;-0.20;99.90
29577;DHT22;16509;53.862;10.672;2024-01-06T10:45:09;-0.20;99.90
29577;DHT22;16509;53.862;10.672;2024-01-06T10:47:36;-0.20;99.90
29577;DHT22;16509;53.862;10.672;2024-01-06T10:50:02;-0.20;99.90
29577;DHT22;16509;53.862;10.672;2024-01-06T10:52:28;-0.20;99.90
29577;DHT22;16509;53.862;10.672;2024-01-06T10:54:54;-0.20;99.90
29577;DHT22;16509;53.862;10.672;2024-01-06T10:57:20;-0.20;99.90
29577;DHT22;16509;53.862;10.672;2024-01-06T10:59:49;-0.20;99.90
29577;DHT22;16509;53.862;10.672;2024-01-06T11:02:15;-0.20;99.90
29577;DHT22;16509;53.862;10.672;2024-01-06T11:04:48;-0.20;99.90
29577;DHT22;16509;53.862;10.672;2024-01-06T11:07:16;-0.10;99.90
29577;DHT22;16509;53.862;10.672;2024-01-06T11:09:51;-0.20;99.90
29577;DHT22;16509;53.862;10.672;2024-01-06T11:12:18;-0.10;99.90
29577;DHT22;16509;53.862;10.672;2024-01-06T11:14:44;-0.10;99.90
29577;DHT22;16509;53.862;10.672;2024-01-06T11:17:11;-0.10;99.90
29577;DHT22;16509;53.862;10.672;2024-01-06T11:22:28;-0.10;99.90
29577;DHT22;16509;53.862;10.672;2024-01-06T11:25:07;-0.20;99.90
29577;DHT22;16509;53.862;10.672;2024-01-06T11:27:33;-0.10;99.90
29577;DHT22;16509;53.862;10.672;2024-01-06T11:30:00;-0.20;99.90
29577;DHT22;16509;53.862;10.672;2024-01-06T11:35:09;-0.20;99.90
29577;DHT22;16509;53.862;10.672;2024-01-06T11:45:36;-0.20;99.90
29577;DHT22;16509;53.862;10.672;2024-01-06T11:48:04;-0.30;99.90
29577;DHT22;16509;53.862;10.672;2024-01-06T11:50:31;-0.20;99.90
29577;DHT22;16509;53.862;10.672;2024-01-06T11:52:57;-0.20;99.90
29577;DHT22;16509;53.862;10.672;2024-01-06T11:55:25;-0.20;99.90
29577;DHT22;16509;53.862;10.672;2024-01-06T11:57:53;-0.20;99.90
29577;DHT22;16509;53.862;10.672;2024-01-06T12:00:19;-0.20;99.90
29577;DHT22;16509;53.862;10.672;2024-01-06T12:02:45;-0.10;99.90
29577;DHT22;16509;53.862;10.672;2024-01-06T12:05:15;-0.10;99.90
29577;DHT22;16509;53.862;10.672;2024-01-06T12:07:41;-0.20;99.90
29577;DHT22;16509;53.862;10.672;2024-01-06T12:10:10;-0.10;99.90
29577;DHT22;16509;53.862;10.672;2024-01-06T12:12:37;-0.10;99.90
29577;DHT22;16509;53.862;10.672;2024-01-06T12:15:03;-0.10;99.90
29577;DHT22;16509;53.862;10.672;2024-01-06T12:17:30;-0.10;99.90
29577;DHT22;16509;53.862;10.672;2024-01-06T12:19:56;-0.20;99.90
29577;DHT22;16509;53.862;10.672;2024-01-06T12:22:22;-0.20;99.90
29577;DHT22;16509;53.862;10.672;2024-01-06T12:24:51;-0.20;99.90
29577;DHT22;16509;53.862;10.672;2024-01-06T12:27:17;-0.20;99.90
29577;DHT22;16509;53.862;10.672;2024-01-06T12:29:43;-0.20;99.90
29577;DHT22;16509;53.862;10.672;2024-01-06T12:32:11;-0.20;99.90
29577;DHT22;16509;53.862;10.672;2024-01-06T12:34:38;-0.30;99.90
29577;DHT22;16509;53.862;10.672;2024-01-06T12:37:05;-0.20;99.90
29577;DHT22;16509;53.862;10.672;2024-01-06T12:39:31;-0.20;99.90
29577;DHT22;16509;53.862;10.672;2024-01-06T12:41:57;-0.20;99.90
29577;DHT22;16509;53.862;10.672;2024-01-06T12:44:25;-0.20;99.90
29577;DHT22;16509;53.862;10.672;2024-01-06T12:46:51;-0.20;99.90
29577;DHT22;16509;53.862;10.672;2024-01-06T12:49:16;-0.30;99.90
29577;DHT22;16509;53.862;10.672;2024-01-06T12:51:42;-0.20;99.90
29577;DHT22;16509;53.862;10.672;2024-01-06T12:54:08;-0.20;99.90
29577;DHT22;16509;53.862;10.672;2024-01-06T12:56:33;-0.20;99.90
29577;DHT22;16509;53.862;10.672;2024-01-06T12:58:59;-0.20;99.90
29577;DHT22;16509;53.862;10.672;2024-01-06T13:01:25;-0.20;99.90
29577;DHT22;16509;53.862;10.672;2024-01-06T13:03:50;-0.20;99.90
29577;DHT22;16509;53.862;10.672;2024-01-06T13:06:17;-0.20;99.90
29577;DHT22;16509;53.862;10.672;2024-01-06T13:08:44;-0.20;99.90
29577;DHT22;16509;53.862;10.672;2024-01-06T13:11:10;-0.10;99.90
29577;DHT22;16509;53.862;10.672;2024-01-06T13:13:35;-0.10;99.90
29577;DHT22;16509;53.862;10.672;2024-01-06T13:16:01;-0.10;99.90
29577;DHT22;16509;53.862;10.672;2024-01-06T13:18:30;-0.10;99.90
29577;DHT22;16509;53.862;10.672;2024-01-06T13:20:56;-0.10;99.90
29577;DHT22;16509;53.862;10.672;2024-01-06T13:23:22;-0.20;99.90
29577;DHT22;16509;53.862;10.672;2024-01-06T13:25:47;-0.10;99.90
29577;DHT22;16509;53.862;10.672;2024-01-06T13:28:13;-0.10;99.90
29577;DHT22;16509;53.862;10.672;2024-01-06T13:30:39;-0.20;99.90
29577;DHT22;16509;53.862;10.672;2024-01-06T13:33:05;-0.10;99.90
29577;DHT22;16509;53.862;10.672;2024-01-06T13:35:31;-0.10;99.90
29577;DHT22;16509;53.862;10.672;2024-01-06T13:37:56;0.00;99.90
29577;DHT22;16509;53.862;10.672;2024-01-06T13:40:22;-0.10;99.90
29577;DHT22;16509;53.862;10.672;2024-01-06T13:42:49;-0.10;99.90
29577;DHT22;16509;53.862;10.672;2024-01-06T13:45:16;-0.10;99.90
29577;DHT22;16509;53.862;10.672;2024-01-06T13:47:41;-0.10;99.90
29577;DHT22;16509;53.862;10.672;2024-01-06T13:50:13;0.00;99.90
29577;DHT22;16509;53.862;10.672;2024-01-06T13:52:39;0.00;99.90
29577;DHT22;16509;53.862;10.672;2024-01-06T13:55:05;-0.10;99.90
29577;DHT22;16509;53.862;10.672;2024-01-06T13:57:31;0.00;99.90
29577;DHT22;16509;53.862;10.672;2024-01-06T13:59:56;-0.10;99.90
29577;DHT22;16509;53.862;10.672;2024-01-06T14:02:23;-0.10;99.90
29577;DHT22;16509;53.862;10.672;2024-01-06T14:04:49;0.00;99.90
29577;DHT22;16509;53.862;10.672;2024-01-06T14:07:15;0.00;99.90
29577;DHT22;16509;53.862;10.672;2024-01-06T14:09:44;-0.10;99.90
29577;DHT22;16509;53.862;10.672;2024-01-06T14:12:09;-0.10;99.90
29577;DHT22;16509;53.862;10.672;2024-01-06T14:14:36;-0.10;99.90
29577;DHT22;16509;53.862;10.672;2024-01-06T14:17:02;-0.10;99.90
29577;DHT22;16509;53.862;10.672;2024-01-06T14:19:28;0.00;99.90
29577;DHT22;16509;53.862;10.672;2024-01-06T14:21:53;-0.10;99.90
29577;DHT22;16509;53.862;10.672;2024-01-06T14:24:19;0.00;99.90
29577;DHT22;16509;53.862;10.672;2024-01-06T14:26:49;0.00;99.90
29577;DHT22;16509;53.862;10.672;2024-01-06T14:29:15;0.00;99.90
29577;DHT22;16509;53.862;10.672;2024-01-06T14:31:42;-0.10;99.90
29577;DHT22;16509;53.862;10.672;2024-01-06T14:34:07;0.00;99.90
29577;DHT22;16509;53.862;10.672;2024-01-06T14:36:33;-0.10;99.90
29577;DHT22;16509;53.862;10.672;2024-01-06T14:38:59;-0.10;99.90
29577;DHT22;16509;53.862;10.672;2024-01-06T14:41:26;0.00;99.90
29577;DHT22;16509;53.862;10.672;2024-01-06T14:43:51;0.00;99.90
29577;DHT22;16509;53.862;10.672;2024-01-06T14:46:17;0.00;99.90
29577;DHT22;16509;53.862;10.672;2024-01-06T14:48:44;0.00;99.90
29577;DHT22;16509;53.862;10.672;2024-01-06T14:51:09;-0.10;99.90
29577;DHT22;16509;53.862;10.672;2024-01-06T14:53:35;0.00;99.90
29577;DHT22;16509;53.862;10.672;2024-01-06T14:56:01;0.00;99.90
29577;DHT22;16509;53.862;10.672;2024-01-06T14:58:29;0.00;99.90
29577;DHT22;16509;53.862;10.672;2024-01-06T15:00:54;-0.10;99.90
29577;DHT22;16509;53.862;10.672;2024-01-06T15:03:20;0.00;99.90
29577;DHT22;16509;53.862;10.672;2024-01-06T15:05:46;-0.10;99.90
29577;DHT22;16509;53.862;10.672;2024-01-06T15:08:11;-0.10;99.90
29577;DHT22;16509;53.862;10.672;2024-01-06T15:10:37;-0.10;99.90
29577;DHT22;16509;53.862;10.672;2024-01-06T15:13:02;-0.10;99.90
29577;DHT22;16509;53.862;10.672;2024-01-06T15:15:28;-0.10;99.90
29577;DHT22;16509;53.862;10.672;2024-01-06T15:17:54;-0.10;99.90
29577;DHT22;16509;53.862;10.672;2024-01-06T15:20:19;-0.10;99.90
29577;DHT22;16509;53.862;10.672;2024-01-06T15:22:46;-0.10;99.90
29577;DHT22;16509;53.862;10.672;2024-01-06T15:25:11;-0.10;99.90